Аэропорт: Полярный. Удачный

ICAO: UERP

METAR:
2021-01-19 10:00:00
UERP 191000Z 07002MPS 2100 BR NSC M51/M57 Q1008 R35/490337 NOSIG RMK QFE712
METAR:
2021-01-19 08:00:00
TAF UERP 190800Z 1909/2009 06003MPS 4000 BR NSC TXM52/1909Z TNM54/1918Z TEMPO 1909/1921 2100 BR